createdAt,value
2022-11-09T00:00:56.951Z,14.20
2022-11-09T00:03:28.792Z,14.10
2022-11-09T00:06:01.948Z,14.40
2022-11-09T00:08:35.141Z,14.10
2022-11-09T00:11:08.810Z,14.40
2022-11-09T00:13:41.731Z,13.40
2022-11-09T00:16:16.621Z,13.10
2022-11-09T00:18:48.748Z,14.20
2022-11-09T00:21:22.327Z,13.60
2022-11-09T00:23:55.037Z,13.90
2022-11-09T00:26:27.592Z,13.40
2022-11-09T00:29:00.057Z,13.40
2022-11-09T00:31:32.142Z,13.30
2022-11-09T00:34:04.252Z,12.70
2022-11-09T00:36:36.215Z,14.30
2022-11-09T00:39:09.639Z,13.80
2022-11-09T00:41:43.442Z,17.30
2022-11-09T00:44:17.836Z,18.80
2022-11-09T00:46:50.265Z,17.80
2022-11-09T00:49:22.135Z,16.70
2022-11-09T00:51:58.730Z,15.20
2022-11-09T00:54:30.625Z,14.70
2022-11-09T00:57:02.483Z,13.90
2022-11-09T00:59:34.467Z,13.20
2022-11-09T01:02:06.414Z,13.70
2022-11-09T01:04:38.886Z,14.30
2022-11-09T01:07:11.277Z,14.30
2022-11-09T01:09:43.272Z,13.90
2022-11-09T01:12:15.129Z,14.50
2022-11-09T01:14:47.329Z,14.10
2022-11-09T01:17:19.142Z,14.80
2022-11-09T01:19:51.033Z,13.80
2022-11-09T01:22:22.882Z,14.70
2022-11-09T01:24:54.708Z,14.60
2022-11-09T01:27:26.535Z,14.60
2022-11-09T01:29:58.398Z,14.80
2022-11-09T01:32:32.434Z,14.30
2022-11-09T01:35:04.339Z,14.50
2022-11-09T01:37:36.298Z,14.50
2022-11-09T01:40:10.497Z,14.80
2022-11-09T01:42:42.663Z,14.20
2022-11-09T01:45:30.173Z,13.80
2022-11-09T01:48:07.293Z,13.30
2022-11-09T01:50:47.995Z,13.00
2022-11-09T01:53:23.546Z,14.20
2022-11-09T01:55:59.219Z,13.90
2022-11-09T01:58:35.327Z,12.70
2022-11-09T02:01:11.397Z,13.60
2022-11-09T02:03:46.673Z,13.00
2022-11-09T02:06:21.526Z,15.30
2022-11-09T02:08:55.547Z,16.60
2022-11-09T02:11:30.365Z,17.30
2022-11-09T02:14:04.483Z,15.80
2022-11-09T02:16:36.994Z,16.20
2022-11-09T02:19:08.865Z,15.00
2022-11-09T02:21:40.816Z,15.30
2022-11-09T02:24:13.658Z,15.40
2022-11-09T02:26:49.631Z,16.20
2022-11-09T02:29:24.754Z,16.60
2022-11-09T02:32:02.579Z,15.40
2022-11-09T02:34:35.917Z,16.00
2022-11-09T02:37:07.855Z,15.00
2022-11-09T02:39:40.054Z,14.90
2022-11-09T02:42:21.007Z,14.50
2022-11-09T02:44:57.687Z,16.40
2022-11-09T02:47:29.740Z,15.40
2022-11-09T02:50:01.578Z,15.80
2022-11-09T02:52:34.085Z,15.10
2022-11-09T02:55:06.374Z,15.10
2022-11-09T02:57:38.257Z,15.10
2022-11-09T03:00:13.115Z,14.00
2022-11-09T03:02:45.316Z,14.10
2022-11-09T03:05:17.449Z,14.40
2022-11-09T03:07:49.632Z,14.20
2022-11-09T03:10:22.893Z,13.90
2022-11-09T03:12:55.104Z,13.90
2022-11-09T03:15:26.944Z,14.00
2022-11-09T03:17:58.918Z,13.90
2022-11-09T03:20:30.801Z,14.10
2022-11-09T03:23:02.985Z,14.50
2022-11-09T03:25:35.016Z,14.50
2022-11-09T03:28:08.966Z,13.80
2022-11-09T03:30:40.821Z,14.90
2022-11-09T03:33:14.425Z,15.50
2022-11-09T03:35:46.249Z,16.00
2022-11-09T03:38:18.152Z,14.50
2022-11-09T03:40:50.084Z,14.90
2022-11-09T03:43:22.150Z,17.00
2022-11-09T03:45:54.391Z,17.80
2022-11-09T03:48:26.325Z,18.00
2022-11-09T03:50:58.138Z,17.20
2022-11-09T03:53:30.116Z,16.20
2022-11-09T03:56:01.936Z,15.40
2022-11-09T03:58:33.882Z,16.60
2022-11-09T04:01:05.799Z,16.00
2022-11-09T04:03:37.833Z,18.90
2022-11-09T04:06:10.407Z,21.10
2022-11-09T04:08:45.763Z,19.60
2022-11-09T04:11:20.728Z,21.00
2022-11-09T04:13:52.807Z,19.00
2022-11-09T04:16:24.650Z,17.90
2022-11-09T04:18:56.795Z,16.90
2022-11-09T04:21:28.629Z,16.80
2022-11-09T04:24:00.467Z,17.10
2022-11-09T04:26:32.416Z,15.90
2022-11-09T04:29:04.357Z,17.40
2022-11-09T04:31:36.171Z,17.70
2022-11-09T04:34:07.994Z,17.80
2022-11-09T04:36:39.865Z,18.50
2022-11-09T04:39:11.815Z,18.00
2022-11-09T04:41:43.599Z,17.60
2022-11-09T04:44:15.551Z,17.00
2022-11-09T04:46:47.381Z,15.90
2022-11-09T04:49:19.409Z,16.20
2022-11-09T04:51:51.320Z,15.50
2022-11-09T04:54:23.193Z,15.00
2022-11-09T04:56:55.162Z,15.50
2022-11-09T04:59:26.975Z,14.90
2022-11-09T05:01:58.816Z,15.50
2022-11-09T05:04:30.727Z,14.70
2022-11-09T05:07:02.918Z,14.30
2022-11-09T05:09:34.883Z,14.10
2022-11-09T05:12:07.227Z,13.80
2022-11-09T05:14:39.217Z,13.10
2022-11-09T05:17:11.076Z,14.90
2022-11-09T05:19:42.956Z,13.30
2022-11-09T05:22:32.768Z,14.00
2022-11-09T05:25:04.838Z,17.60
2022-11-09T05:27:36.681Z,19.80
2022-11-09T05:30:22.820Z,21.30
2022-11-09T05:32:54.926Z,19.30
2022-11-09T05:35:26.848Z,19.80
2022-11-09T05:37:59.123Z,19.50
2022-11-09T05:40:31.008Z,18.50
2022-11-09T05:43:02.791Z,18.80
2022-11-09T05:45:43.687Z,19.30
2022-11-09T05:48:17.415Z,20.60
2022-11-09T05:50:49.275Z,20.70
2022-11-09T05:53:21.425Z,21.90
2022-11-09T05:55:55.291Z,23.20
2022-11-09T05:58:27.119Z,24.00
2022-11-09T06:00:59.977Z,24.70
2022-11-09T06:03:31.783Z,25.40
2022-11-09T06:06:09.171Z,24.70
2022-11-09T06:08:41.441Z,20.40
2022-11-09T06:11:21.889Z,18.70
2022-11-09T06:13:56.006Z,15.70
2022-11-09T06:16:28.040Z,14.50
2022-11-09T06:18:59.993Z,13.70
2022-11-09T06:21:31.823Z,13.40
2022-11-09T06:24:03.673Z,13.50
2022-11-09T06:26:35.527Z,13.30
2022-11-09T06:29:07.806Z,12.90
2022-11-09T06:31:39.691Z,14.10
2022-11-09T06:34:11.784Z,13.60
2022-11-09T06:36:43.886Z,13.60
2022-11-09T06:39:15.967Z,12.90
2022-11-09T06:41:47.942Z,13.00
2022-11-09T06:44:19.801Z,13.30
2022-11-09T06:46:51.760Z,11.80
2022-11-09T06:49:23.428Z,11.80
2022-11-09T06:51:55.054Z,12.80
2022-11-09T06:54:26.715Z,12.90
2022-11-09T06:56:58.535Z,13.60
2022-11-09T06:59:30.254Z,13.80
2022-11-09T07:02:02.347Z,16.80
2022-11-09T07:04:34.508Z,20.40
2022-11-09T07:07:06.285Z,22.30
2022-11-09T07:09:37.943Z,21.40
2022-11-09T07:12:10.537Z,20.50
2022-11-09T07:14:42.178Z,19.20
2022-11-09T07:17:13.843Z,18.20
2022-11-09T07:19:45.462Z,17.50
2022-11-09T07:22:17.202Z,16.40
2022-11-09T07:24:48.880Z,13.60
2022-11-09T07:27:24.840Z,13.40
2022-11-09T07:29:59.375Z,12.40
2022-11-09T07:33:06.957Z,14.00
2022-11-09T07:35:25.275Z,15.00
2022-11-09T07:38:00.266Z,13.80
2022-11-09T07:40:32.387Z,13.10
2022-11-09T07:43:05.954Z,12.70
2022-11-09T07:45:38.173Z,10.60
2022-11-09T07:48:12.203Z,11.50
2022-11-09T07:50:43.949Z,11.10
2022-11-09T07:53:17.561Z,10.30
2022-11-09T07:55:57.052Z,11.00
2022-11-09T07:58:29.307Z,11.10
2022-11-09T08:01:01.112Z,11.00
2022-11-09T08:03:32.860Z,10.60
2022-11-09T08:06:04.666Z,9.80
2022-11-09T08:08:36.686Z,10.80
2022-11-09T08:11:08.618Z,10.40
2022-11-09T08:13:40.320Z,10.60
2022-11-09T08:16:12.701Z,10.80
2022-11-09T08:18:44.571Z,11.10
2022-11-09T08:21:18.857Z,11.30
2022-11-09T08:23:50.991Z,10.80
2022-11-09T08:26:22.743Z,10.90
2022-11-09T08:28:54.488Z,10.80
2022-11-09T08:31:26.614Z,11.60
2022-11-09T08:33:58.413Z,11.30
2022-11-09T08:36:31.711Z,11.70
2022-11-09T08:39:03.760Z,10.60
2022-11-09T08:41:35.888Z,10.40
2022-11-09T08:44:08.405Z,10.90
2022-11-09T08:46:41.601Z,11.50
2022-11-09T08:49:13.485Z,10.80
2022-11-09T08:51:45.191Z,12.00
2022-11-09T08:54:18.137Z,11.60
2022-11-09T08:56:50.622Z,11.80
2022-11-09T08:59:22.691Z,12.30
2022-11-09T09:01:54.533Z,11.90
2022-11-09T09:04:26.951Z,11.30
2022-11-09T09:07:00.355Z,11.70
2022-11-09T09:09:32.259Z,11.90
2022-11-09T09:12:04.013Z,12.10
2022-11-09T09:14:36.232Z,11.60
2022-11-09T09:17:07.970Z,11.80
2022-11-09T09:19:39.990Z,11.30
2022-11-09T09:22:20.639Z,11.50
2022-11-09T09:24:52.456Z,12.30
2022-11-09T09:28:08.836Z,11.50
2022-11-09T09:30:42.044Z,12.60
2022-11-09T09:33:14.179Z,11.60
2022-11-09T09:35:46.092Z,12.30
2022-11-09T09:38:18.989Z,12.40
2022-11-09T09:40:58.812Z,11.70
2022-11-09T09:43:41.503Z,11.90
2022-11-09T09:46:23.227Z,12.00
2022-11-09T09:48:59.546Z,11.00
2022-11-09T09:51:38.822Z,11.10
2022-11-09T09:54:20.042Z,11.40
2022-11-09T09:56:54.528Z,10.40
2022-11-09T09:59:34.222Z,12.10
2022-11-09T10:02:11.688Z,10.70
2022-11-09T10:04:44.440Z,11.00
2022-11-09T10:07:23.666Z,11.90
2022-11-09T10:18:28.457Z,12.40
2022-11-09T10:21:40.486Z,11.90
2022-11-09T10:24:38.732Z,11.80
2022-11-09T10:27:27.379Z,11.90
2022-11-09T10:30:00.356Z,12.40
2022-11-09T10:32:36.188Z,12.40
2022-11-09T10:35:20.027Z,13.60
2022-11-09T10:37:55.125Z,13.00
2022-11-09T10:40:39.926Z,13.60
2022-11-09T10:43:15.089Z,13.20
2022-11-09T10:45:58.278Z,13.70
2022-11-09T10:48:36.521Z,12.60
2022-11-09T10:51:30.595Z,13.40
2022-11-09T10:54:17.570Z,12.70
2022-11-09T10:57:05.707Z,13.10
2022-11-09T10:59:47.191Z,13.00
2022-11-09T11:02:46.119Z,12.70
2022-11-09T11:05:32.593Z,13.00
2022-11-09T11:08:27.810Z,13.00
2022-11-09T11:11:36.961Z,12.70
2022-11-09T11:14:19.854Z,13.00
2022-11-09T11:16:53.800Z,13.80
2022-11-09T11:19:41.375Z,12.60
2022-11-09T11:22:23.304Z,13.20
2022-11-09T11:24:58.488Z,12.70
2022-11-09T11:27:39.073Z,13.80
2022-11-09T11:30:18.799Z,13.70
2022-11-09T11:32:55.064Z,13.60
2022-11-09T11:35:36.312Z,14.20
2022-11-09T11:38:22.160Z,13.70
2022-11-09T11:41:04.338Z,14.40
2022-11-09T11:43:46.861Z,14.40
2022-11-09T11:46:29.135Z,14.50
2022-11-09T11:49:18.049Z,14.40
2022-11-09T11:51:59.096Z,13.20
2022-11-09T11:57:13.652Z,14.10
2022-11-09T11:59:57.977Z,15.50
2022-11-09T12:02:57.196Z,14.90
2022-11-09T12:06:06.810Z,17.90
2022-11-09T12:08:53.070Z,19.40
2022-11-09T12:16:09.673Z,16.30
2022-11-09T12:29:45.129Z,20.40
2022-11-09T12:32:26.289Z,19.70
2022-11-09T12:37:49.590Z,18.70
2022-11-09T12:40:29.314Z,20.90
2022-11-09T12:43:06.842Z,22.00
2022-11-09T12:45:41.508Z,20.20
2022-11-09T12:48:25.874Z,19.80
2022-11-09T12:50:58.784Z,20.10
2022-11-09T12:53:33.948Z,20.30
2022-11-09T12:56:11.220Z,20.10
2022-11-09T12:58:42.952Z,19.20
2022-11-09T13:01:35.801Z,17.70
2022-11-09T13:04:08.725Z,16.80
2022-11-09T13:06:42.446Z,16.70
2022-11-09T13:09:32.600Z,16.40
2022-11-09T13:12:31.418Z,16.90
2022-11-09T13:15:22.718Z,17.20
2022-11-09T13:18:04.439Z,16.80
2022-11-09T13:20:57.126Z,17.60
2022-11-09T13:26:58.216Z,17.40
2022-11-09T13:29:31.331Z,18.40
2022-11-09T13:32:06.264Z,16.70
2022-11-09T13:34:46.317Z,16.50
2022-11-09T13:37:49.555Z,17.00
2022-11-09T13:40:45.074Z,18.00
2022-11-09T13:43:23.376Z,16.70
2022-11-09T13:45:57.887Z,17.60
2022-11-09T13:48:45.324Z,17.00
2022-11-09T13:51:20.599Z,18.10
2022-11-09T13:53:58.257Z,17.60
2022-11-09T13:56:37.154Z,18.20
2022-11-09T13:59:16.398Z,17.90
2022-11-09T14:01:54.007Z,19.00
2022-11-09T14:04:28.935Z,16.60
2022-11-09T14:07:06.004Z,18.70
2022-11-09T14:09:48.759Z,19.10
2022-11-09T14:12:43.089Z,17.80
2022-11-09T14:15:29.901Z,17.40
2022-11-09T14:18:12.626Z,19.40
2022-11-09T14:20:55.218Z,18.10
2022-11-09T14:23:34.466Z,19.40
2022-11-09T14:26:11.580Z,19.00
2022-11-09T14:28:43.310Z,19.60
2022-11-09T14:31:27.077Z,20.60
2022-11-09T14:34:06.570Z,19.20
2022-11-09T14:36:41.529Z,20.10
2022-11-09T14:39:25.071Z,19.40
2022-11-09T14:42:03.810Z,20.20
2022-11-09T14:44:40.636Z,19.80
2022-11-09T14:47:27.659Z,19.70
2022-11-09T14:50:00.247Z,20.60
2022-11-09T14:52:32.468Z,21.50
2022-11-09T14:55:05.478Z,20.70
2022-11-09T14:57:39.276Z,20.00
2022-11-09T15:00:40.664Z,20.00
2022-11-09T15:03:27.850Z,20.20
2022-11-09T15:06:08.721Z,19.80
2022-11-09T15:08:53.475Z,20.50
2022-11-09T15:11:34.256Z,21.70
2022-11-09T15:14:16.135Z,21.90
2022-11-09T15:16:50.932Z,21.70
2022-11-09T15:19:29.852Z,21.50
2022-11-09T15:22:02.026Z,21.80
2022-11-09T15:24:48.494Z,20.60
2022-11-09T15:27:35.061Z,20.30
2022-11-09T15:30:29.248Z,21.20
2022-11-09T15:33:03.802Z,20.60
2022-11-09T15:35:35.409Z,20.40
2022-11-09T15:38:07.124Z,20.60
2022-11-09T15:40:39.072Z,20.30
2022-11-09T15:43:10.866Z,21.50
2022-11-09T15:45:42.588Z,21.90
2022-11-09T15:48:14.310Z,24.80
2022-11-09T15:50:45.972Z,23.20
2022-11-09T15:53:17.919Z,23.10
2022-11-09T15:55:50.117Z,24.30
2022-11-09T15:58:24.664Z,23.20
2022-11-09T16:00:56.609Z,24.30
2022-11-09T16:03:29.561Z,24.60
2022-11-09T16:06:05.717Z,23.50
2022-11-09T16:08:38.695Z,22.50
2022-11-09T16:11:11.682Z,22.40
2022-11-09T16:13:43.633Z,23.90
2022-11-09T16:16:18.698Z,23.30
2022-11-09T16:18:50.563Z,24.20
2022-11-09T16:21:25.085Z,23.80
2022-11-09T16:23:58.716Z,22.20
2022-11-09T16:26:32.067Z,21.50
2022-11-09T16:29:03.972Z,23.20
2022-11-09T16:31:51.554Z,23.80
2022-11-09T16:34:29.784Z,24.00
2022-11-09T16:37:07.155Z,22.80
2022-11-09T16:39:42.843Z,23.60
2022-11-09T16:42:18.328Z,24.80
2022-11-09T16:44:51.830Z,23.40
2022-11-09T16:47:25.812Z,23.10
2022-11-09T16:49:57.474Z,23.90
2022-11-09T16:52:34.727Z,23.10
2022-11-09T16:55:10.322Z,23.70
2022-11-09T16:57:43.349Z,24.30
2022-11-09T17:00:49.089Z,23.60
2022-11-09T17:03:28.207Z,24.30
2022-11-09T17:06:04.010Z,25.50
2022-11-09T17:08:36.045Z,24.20
2022-11-09T17:11:13.619Z,24.10
2022-11-09T17:13:45.329Z,24.70
2022-11-09T17:16:22.971Z,24.40
2022-11-09T17:18:59.017Z,25.40
2022-11-09T17:21:33.165Z,24.80
2022-11-09T17:24:06.487Z,25.50
2022-11-09T17:26:38.660Z,25.10
2022-11-09T17:29:11.622Z,26.40
2022-11-09T17:31:43.685Z,25.10
2022-11-09T17:34:17.919Z,26.10
2022-11-09T17:37:08.869Z,27.20
2022-11-09T17:39:42.927Z,26.10
2022-11-09T17:42:14.763Z,25.90
2022-11-09T17:44:47.875Z,26.30
2022-11-09T17:47:23.538Z,28.00
2022-11-09T17:49:55.231Z,27.10
2022-11-09T17:52:29.708Z,26.50
2022-11-09T17:55:03.880Z,27.60
2022-11-09T17:57:40.332Z,28.80
2022-11-09T18:00:14.411Z,27.60
2022-11-09T18:02:53.307Z,27.60
2022-11-09T18:05:26.906Z,27.70
2022-11-09T18:08:02.812Z,27.20
2022-11-09T18:10:34.453Z,27.20
2022-11-09T18:13:07.903Z,27.10
2022-11-09T18:15:43.500Z,26.20
2022-11-09T18:18:21.314Z,28.10
2022-11-09T18:20:59.372Z,28.20
2022-11-09T18:23:31.009Z,28.30
2022-11-09T18:26:06.459Z,28.20
2022-11-09T18:28:41.555Z,28.50
2022-11-09T18:31:15.215Z,28.60
2022-11-09T18:33:49.802Z,28.50
2022-11-09T18:36:27.406Z,29.70
2022-11-09T18:38:59.196Z,29.80
2022-11-09T18:41:30.946Z,30.40
2022-11-09T18:44:07.419Z,29.40
2022-11-09T18:46:39.053Z,30.60
2022-11-09T18:49:14.190Z,29.70
2022-11-09T18:51:46.887Z,32.00
2022-11-09T18:54:18.701Z,29.90
2022-11-09T18:56:50.560Z,31.00
2022-11-09T18:59:22.376Z,29.30
2022-11-09T19:01:54.278Z,29.50
2022-11-09T19:04:26.384Z,29.50
2022-11-09T19:06:58.187Z,29.50
2022-11-09T19:09:35.541Z,29.50
2022-11-09T19:12:11.579Z,30.10
2022-11-09T19:14:44.793Z,29.50
2022-11-09T19:17:17.689Z,30.60
2022-11-09T19:19:50.192Z,29.90
2022-11-09T19:22:22.149Z,30.00
2022-11-09T19:24:54.154Z,29.40
2022-11-09T19:27:29.010Z,29.40
2022-11-09T19:30:06.272Z,28.40
2022-11-09T19:32:39.928Z,28.70
2022-11-09T19:35:12.249Z,30.10
2022-11-09T19:37:44.264Z,30.60
2022-11-09T19:40:23.838Z,29.40
2022-11-09T19:42:55.618Z,29.60
2022-11-09T19:45:27.501Z,30.40
2022-11-09T19:47:59.302Z,29.60
2022-11-09T19:50:31.041Z,30.70
2022-11-09T19:53:02.950Z,30.80
2022-11-09T19:55:34.878Z,29.00
2022-11-09T19:58:06.828Z,29.80
2022-11-09T20:00:40.635Z,28.80
2022-11-09T20:03:12.574Z,31.80
2022-11-09T20:05:44.467Z,33.00
2022-11-09T20:08:17.850Z,29.80
2022-11-09T20:10:49.721Z,28.50
2022-11-09T20:13:22.936Z,29.00
2022-11-09T20:15:54.643Z,28.60
2022-11-09T20:18:26.585Z,29.00
2022-11-09T20:20:59.255Z,29.80
2022-11-09T20:23:30.964Z,29.40
2022-11-09T20:26:09.174Z,29.80
2022-11-09T20:28:41.031Z,29.00
2022-11-09T20:31:14.293Z,28.00
2022-11-09T20:33:46.165Z,28.40
2022-11-09T20:36:19.032Z,29.10
2022-11-09T20:38:51.081Z,30.30
2022-11-09T20:41:25.344Z,33.20
2022-11-09T20:43:58.506Z,39.10
2022-11-09T20:46:35.757Z,40.50
2022-11-09T20:49:09.260Z,37.50
2022-11-09T20:51:41.276Z,34.70
2022-11-09T20:54:13.035Z,37.30
2022-11-09T20:56:45.796Z,38.50
2022-11-09T20:59:17.468Z,37.80
2022-11-09T21:01:49.367Z,36.60
2022-11-09T21:04:23.466Z,37.60
2022-11-09T21:06:55.667Z,37.70
2022-11-09T21:09:27.993Z,36.60
2022-11-09T21:12:17.971Z,46.50
2022-11-09T21:14:50.028Z,36.60
2022-11-09T21:17:22.524Z,36.30
2022-11-09T21:19:54.812Z,36.50
2022-11-09T21:22:47.259Z,36.70
2022-11-09T21:25:37.129Z,35.80
2022-11-09T21:28:34.109Z,36.20
2022-11-09T21:31:06.611Z,37.80
2022-11-09T21:33:38.633Z,36.80
2022-11-09T21:36:12.316Z,37.50
2022-11-09T21:38:45.014Z,38.80
2022-11-09T21:41:34.300Z,42.00
2022-11-09T21:44:06.687Z,42.90
2022-11-09T21:48:07.391Z,40.90
2022-11-09T21:52:53.471Z,41.90
2022-11-09T22:02:28.334Z,36.00
2022-11-09T22:05:00.033Z,36.50
2022-11-09T22:07:35.573Z,35.60
2022-11-09T22:10:11.779Z,36.90
2022-11-09T22:13:15.860Z,36.70
2022-11-09T22:16:06.312Z,35.00
2022-11-09T22:18:57.135Z,38.40
2022-11-09T22:21:28.872Z,36.50
2022-11-09T22:24:00.783Z,40.20
2022-11-09T22:26:33.217Z,48.80
2022-11-09T22:29:05.276Z,52.00
2022-11-09T22:31:36.996Z,50.30
2022-11-09T22:34:08.631Z,52.80
2022-11-09T22:36:40.787Z,49.30
2022-11-09T22:39:12.451Z,48.50
2022-11-09T22:41:44.317Z,44.70
2022-11-09T22:44:16.014Z,42.80
2022-11-09T22:46:48.626Z,40.40
2022-11-09T22:49:20.254Z,38.70
2022-11-09T22:51:54.334Z,37.90
2022-11-09T22:54:26.185Z,37.20
2022-11-09T22:56:57.835Z,35.70
2022-11-09T22:59:29.577Z,36.10
2022-11-09T23:02:01.375Z,36.70
2022-11-09T23:04:33.222Z,34.80
2022-11-09T23:07:05.097Z,36.10
2022-11-09T23:09:36.821Z,36.10
2022-11-09T23:12:08.791Z,38.20
2022-11-09T23:14:57.964Z,37.10
2022-11-09T23:17:47.251Z,36.10
2022-11-09T23:20:19.975Z,35.30
2022-11-09T23:22:55.906Z,35.10
2022-11-09T23:25:44.868Z,34.70
2022-11-09T23:28:17.134Z,34.00
2022-11-09T23:30:48.893Z,32.70
2022-11-09T23:33:21.039Z,33.20
2022-11-09T23:35:53.011Z,35.00
2022-11-09T23:38:25.344Z,34.00
2022-11-09T23:40:57.111Z,34.00
2022-11-09T23:43:28.821Z,32.30
2022-11-09T23:46:03.684Z,34.70
2022-11-09T23:48:35.560Z,33.90
2022-11-09T23:51:09.085Z,33.90
2022-11-09T23:53:41.292Z,34.00
2022-11-09T23:56:14.528Z,33.20
2022-11-09T23:58:51.641Z,34.50
